Terminal Aerodrome Forecast
Issued by NWS

Home | Current Version | Previous Version | Text Only | Print | Product List | Glossary On
Versions: 1 2 3 4 5 6 7 8 9 10 11 12 13
000
FTUS43 KMPX 242359
TAFRNH
TAF
KRNH 242359Z 2500/2524 28009KT P6SM OVC250
     FM250600 26004KT P6SM BKN250
     FM251700 28012G19KT P6SM FEW250
     FM252300 30007KT P6SM FEW070 BKN120=

USA.gov is the U.S. government's official web portal to all federal, state and local government web resources and services.